Time;durP1;ratioP1;P1;durP2;ratioP2;P2;SDS_P1;SDS_P2;PMS_P1;PMS_P2;Temp;Humidity;BMP_temperature;BMP_pressure;BME280_temperature;BME280_humidity;BME280_pressure;Samples;Min_cycle;Max_cycle;Signal;HPM_P1;HPM_P2
2022/02/27 00:00:21;;;;;;;7.50;2.03;;;6.80;56.30;;;;;;4993703;28;20050;-70
2022/02/27 00:02:48;;;;;;;14.75;3.03;;;6.80;56.30;;;;;;4993885;28;20863;-70
2022/02/27 00:05:15;;;;;;;8.95;3.00;;;6.70;56.30;;;;;;4994454;28;20117;-70
2022/02/27 00:07:42;;;;;;;7.70;3.00;;;6.70;56.50;;;;;;4991208;28;20042;-70
2022/02/27 00:10:11;;;;;;;7.15;3.05;;;6.70;56.60;;;;;;4993060;28;20046;-70
2022/02/27 00:12:38;;;;;;;9.77;2.67;;;6.70;56.60;;;;;;4994909;28;20053;-70
2022/02/27 00:15:06;;;;;;;11.13;3.42;;;6.60;56.70;;;;;;4989957;28;20571;-70
2022/02/27 00:17:36;;;;;;;9.93;2.35;;;6.70;56.70;;;;;;4992035;28;20096;-70
2022/02/27 00:20:04;;;;;;;9.90;2.42;;;6.60;56.70;;;;;;5006677;28;20058;-70
2022/02/27 00:22:32;;;;;;;8.20;3.33;;;6.70;56.80;;;;;;4992635;28;20061;-70
2022/02/27 00:25:00;;;;;;;8.15;2.60;;;6.50;56.80;;;;;;4994036;28;20046;-70
2022/02/27 00:27:27;;;;;;;7.10;3.00;;;6.40;57.40;;;;;;4994087;28;20559;-70
2022/02/27 00:29:54;;;;;;;11.40;3.30;;;6.40;57.60;;;;;;5007165;28;20833;-70
2022/02/27 00:32:21;;;;;;;9.43;2.72;;;6.50;57.40;;;;;;4993528;28;20432;-70
2022/02/27 00:34:48;;;;;;;7.90;2.88;;;6.60;57.10;;;;;;5009317;28;20054;-70
2022/02/27 00:37:17;;;;;;;10.48;3.13;;;6.70;57.10;;;;;;4977776;28;20077;-70
2022/02/27 00:39:44;;;;;;;8.45;3.38;;;6.70;57.10;;;;;;4993902;28;20070;-70
2022/02/27 00:42:11;;;;;;;8.88;2.45;;;6.70;57.20;;;;;;5008825;28;20074;-71
2022/02/27 00:44:38;;;;;;;7.25;2.58;;;6.70;57.00;;;;;;4990590;28;20049;-70
2022/02/27 00:47:06;;;;;;;6.85;2.63;;;6.80;56.90;;;;;;4976792;28;20046;-70
2022/02/27 00:49:34;;;;;;;9.02;3.28;;;6.70;57.10;;;;;;4991384;28;20038;-70
2022/02/27 00:52:01;;;;;;;9.07;3.22;;;6.80;57.10;;;;;;4994012;28;20042;-70
2022/02/27 00:54:31;;;;;;;8.20;2.92;;;6.80;57.30;;;;;;4974437;28;20047;-70
2022/02/27 00:56:58;;;;;;;11.00;3.40;;;6.60;57.60;;;;;;4991574;28;20057;-70
2022/02/27 00:59:25;;;;;;;7.68;3.15;;;6.60;57.90;;;;;;4995865;28;20072;-70
2022/02/27 01:01:52;;;;;;;10.07;3.70;;;6.40;58.40;;;;;;4992614;28;20108;-70
2022/02/27 01:04:20;;;;;;;10.73;3.03;;;6.50;58.40;;;;;;4977551;28;20038;-70
2022/02/27 01:06:47;;;;;;;11.15;3.58;;;6.40;58.50;;;;;;5009165;28;20037;-70
2022/02/27 01:09:14;;;;;;;9.32;3.45;;;6.50;58.60;;;;;;4975168;28;20132;-70
2022/02/27 01:11:42;;;;;;;7.18;3.60;;;6.50;58.60;;;;;;4976362;28;20038;-70
2022/02/27 01:14:09;;;;;;;9.95;3.45;;;6.50;58.70;;;;;;5008291;28;20708;-70
2022/02/27 01:16:36;;;;;;;8.82;3.40;;;6.40;59.10;;;;;;4994168;28;20045;-70
2022/02/27 01:19:04;;;;;;;8.93;3.67;;;6.30;59.10;;;;;;4975487;28;20061;-70
2022/02/27 01:21:34;;;;;;;9.43;3.35;;;6.50;59.30;;;;;;5007301;28;20556;-70
2022/02/27 01:24:01;;;;;;;12.57;4.38;;;6.40;59.20;;;;;;4991436;28;20042;-70
2022/02/27 01:26:28;;;;;;;8.82;4.13;;;6.40;59.60;;;;;;4974547;28;20092;-70
2022/02/27 01:28:55;;;;;;;10.70;4.10;;;6.20;59.90;;;;;;4993918;28;20046;-70
2022/02/27 01:31:22;;;;;;;12.40;3.72;;;6.30;59.60;;;;;;5006745;28;20069;-70
2022/02/27 01:33:49;;;;;;;10.27;4.45;;;6.40;59.80;;;;;;4990421;28;20054;-70
2022/02/27 01:36:17;;;;;;;11.52;3.80;;;6.50;59.10;;;;;;5007571;28;20049;-70
2022/02/27 01:38:45;;;;;;;10.27;4.13;;;6.30;59.60;;;;;;4990893;28;20053;-70
2022/02/27 01:41:15;;;;;;;12.35;4.38;;;6.40;59.80;;;;;;4995991;28;20046;-70
2022/02/27 01:43:42;;;;;;;11.30;3.92;;;6.50;59.70;;;;;;4980938;28;20053;-70
2022/02/27 01:46:10;;;;;;;11.70;3.63;;;6.40;59.70;;;;;;4997534;28;20038;-70
2022/02/27 01:48:39;;;;;;;9.82;3.72;;;6.50;59.70;;;;;;4998063;28;20042;-70
2022/02/27 01:51:06;;;;;;;11.48;3.90;;;6.50;59.60;;;;;;4999293;28;20054;-70
2022/02/27 01:53:33;;;;;;;14.45;5.03;;;6.60;59.70;;;;;;4997975;28;20582;-70
2022/02/27 01:56:01;;;;;;;13.20;4.32;;;6.40;60.70;;;;;;4999081;28;20794;-70
2022/02/27 01:58:29;;;;;;;11.52;4.28;;;6.50;60.00;;;;;;5012343;28;20045;-70
2022/02/27 02:00:58;;;;;;;12.07;4.35;;;6.60;59.50;;;;;;4982725;28;20053;-70
2022/02/27 02:03:26;;;;;;;13.13;4.20;;;6.50;59.80;;;;;;4996272;28;20133;-70
2022/02/27 02:05:54;;;;;;;14.80;4.22;;;6.50;59.80;;;;;;4997830;28;20045;-70
2022/02/27 02:08:22;;;;;;;10.38;4.40;;;6.40;60.10;;;;;;4996912;28;20046;-70
2022/02/27 02:10:50;;;;;;;9.73;3.83;;;6.30;60.40;;;;;;4998569;28;20129;-70
2022/02/27 02:13:17;;;;;;;9.48;4.03;;;6.20;60.80;;;;;;4982444;28;20052;-70
2022/02/27 02:15:55;;;;;;;9.35;3.55;;;6.20;60.80;;;;;;5013329;28;20827;-70
2022/02/27 02:18:22;;;;;;;12.48;3.72;;;6.10;61.00;;;;;;4998065;28;20085;-70
2022/02/27 02:20:50;;;;;;;13.15;4.55;;;6.10;61.20;;;;;;4993563;28;20042;-70
2022/02/27 02:23:17;;;;;;;10.93;3.72;;;6.20;60.80;;;;;;4997421;28;20509;-70
2022/02/27 02:25:44;;;;;;;8.88;3.80;;;6.00;61.20;;;;;;4995982;28;20112;-70
2022/02/27 02:28:12;;;;;;;10.25;4.10;;;6.00;61.20;;;;;;4998849;28;20123;-70
2022/02/27 02:30:40;;;;;;;8.15;3.45;;;6.10;61.20;;;;;;5012383;28;20037;-70
2022/02/27 02:33:07;;;;;;;10.93;4.15;;;6.10;60.90;;;;;;4997256;28;20260;-70
2022/02/27 02:35:34;;;;;;;9.77;3.53;;;6.10;61.00;;;;;;4997919;28;20106;-70
2022/02/27 02:38:01;;;;;;;9.27;3.55;;;6.00;61.40;;;;;;4997681;28;20096;-70
2022/02/27 02:40:30;;;;;;;10.98;3.58;;;6.00;61.20;;;;;;4996694;28;20152;-70
2022/02/27 02:43:00;;;;;;;9.85;3.95;;;5.80;61.60;;;;;;4996861;28;20084;-70
2022/02/27 02:45:27;;;;;;;8.15;3.85;;;5.90;62.30;;;;;;4997069;28;20695;-70
2022/02/27 02:47:56;;;;;;;10.00;3.90;;;6.10;61.20;;;;;;4996730;28;20487;-70
2022/02/27 02:50:27;;;;;;;9.57;3.53;;;6.30;60.40;;;;;;4997698;28;20283;-70
2022/02/27 02:52:57;;;;;;;9.27;3.42;;;6.10;60.80;;;;;;5008972;28;20047;-70
2022/02/27 02:55:24;;;;;;;8.02;3.83;;;6.10;61.00;;;;;;4992490;28;20061;-70
2022/02/27 02:57:51;;;;;;;12.18;3.55;;;6.20;60.40;;;;;;4994548;28;20464;-70
2022/02/27 03:00:18;;;;;;;9.18;3.47;;;6.00;60.70;;;;;;4995536;28;20097;-70
2022/02/27 03:02:45;;;;;;;12.23;4.13;;;5.90;61.30;;;;;;4996134;28;20077;-70
2022/02/27 03:05:12;;;;;;;12.00;3.65;;;5.90;61.40;;;;;;4999161;28;20116;-70
2022/02/27 03:07:40;;;;;;;7.93;3.53;;;5.80;61.60;;;;;;4995352;28;20061;-70
2022/02/27 03:10:09;;;;;;;10.15;3.53;;;5.90;61.10;;;;;;4993785;28;20046;-70
2022/02/27 03:12:37;;;;;;;8.35;3.53;;;5.80;61.40;;;;;;4996561;28;20461;-70
2022/02/27 03:15:07;;;;;;;8.75;3.83;;;6.00;61.20;;;;;;4995784;28;20054;-70
2022/02/27 03:17:34;;;;;;;10.73;3.80;;;6.00;61.10;;;;;;4992745;28;20124;-70
2022/02/27 03:20:01;;;;;;;13.00;3.67;;;5.80;61.60;;;;;;4994644;28;20056;-70
2022/02/27 03:22:28;;;;;;;9.70;3.72;;;5.80;61.40;;;;;;4992968;28;20100;-70
2022/02/27 03:24:55;;;;;;;9.32;3.67;;;5.90;61.10;;;;;;4992679;28;20430;-70
2022/02/27 03:27:22;;;;;;;8.23;3.70;;;5.90;61.60;;;;;;4992837;28;20073;-70
2022/02/27 03:29:49;;;;;;;12.85;3.85;;;5.90;61.20;;;;;;4993687;28;20093;-70
2022/02/27 03:32:17;;;;;;;7.47;3.47;;;5.90;61.10;;;;;;4996615;28;20037;-70
2022/02/27 03:34:44;;;;;;;8.77;3.38;;;6.10;60.80;;;;;;4993055;28;20439;-70
2022/02/27 03:37:11;;;;;;;10.75;3.42;;;6.00;61.00;;;;;;5010997;28;20053;-70
2022/02/27 03:39:38;;;;;;;8.30;4.05;;;5.90;61.10;;;;;;4994370;28;20124;-70
2022/02/27 03:42:05;;;;;;;8.73;3.28;;;5.90;61.20;;;;;;4992874;28;20132;-70
2022/02/27 03:44:32;;;;;;;9.15;3.70;;;5.90;61.20;;;;;;4992412;28;20069;-70
2022/02/27 03:46:59;;;;;;;9.10;3.70;;;5.90;60.90;;;;;;4993380;28;20051;-70
2022/02/27 03:49:26;;;;;;;8.52;3.83;;;5.80;61.50;;;;;;4994175;28;20038;-70
2022/02/27 03:51:53;;;;;;;9.77;3.50;;;5.70;61.80;;;;;;4992718;28;20808;-70
2022/02/27 03:54:21;;;;;;;10.50;3.50;;;5.70;61.60;;;;;;4993605;28;20112;-70
2022/02/27 03:56:48;;;;;;;9.43;3.72;;;5.80;61.20;;;;;;4994802;28;20050;-70
2022/02/27 03:59:17;;;;;;;12.68;3.55;;;5.90;61.00;;;;;;4992803;28;20676;-70
2022/02/27 04:01:45;;;;;;;9.13;4.22;;;5.80;61.10;;;;;;4992985;28;20042;-70
2022/02/27 04:04:12;;;;;;;9.40;4.05;;;5.70;61.70;;;;;;4994265;28;20097;-70
2022/02/27 04:06:39;;;;;;;9.30;3.30;;;5.90;61.10;;;;;;4994306;28;20573;-70
2022/02/27 04:09:06;;;;;;;11.73;3.90;;;5.80;61.30;;;;;;4993409;28;20133;-70
2022/02/27 04:11:33;;;;;;;9.40;3.97;;;5.80;61.60;;;;;;4995110;28;20046;-70
2022/02/27 04:14:00;;;;;;;10.38;3.90;;;5.70;61.60;;;;;;4992211;28;20045;-70
2022/02/27 04:16:27;;;;;;;11.90;3.60;;;5.70;62.00;;;;;;4985082;28;20056;-70
2022/02/27 04:18:54;;;;;;;9.95;3.58;;;5.80;61.40;;;;;;4995566;28;20065;-71
2022/02/27 04:21:23;;;;;;;11.07;3.72;;;5.90;61.10;;;;;;4995718;28;20046;-70
2022/02/27 04:23:50;;;;;;;9.82;3.53;;;6.00;60.90;;;;;;5008235;28;20545;-70
2022/02/27 04:26:17;;;;;;;11.02;3.20;;;5.80;61.40;;;;;;4998600;28;20062;-70
2022/02/27 04:28:44;;;;;;;9.95;3.90;;;6.00;60.70;;;;;;4993157;28;20161;-70
2022/02/27 04:31:12;;;;;;;9.43;3.35;;;6.10;60.70;;;;;;5008238;28;20045;-70
2022/02/27 04:33:39;;;;;;;10.57;4.32;;;6.00;60.70;;;;;;5007917;28;20042;-70
2022/02/27 04:36:06;;;;;;;10.93;3.40;;;6.20;60.40;;;;;;4992513;28;20080;-70
2022/02/27 04:38:33;;;;;;;7.57;3.45;;;6.10;60.20;;;;;;4993949;28;20054;-70
2022/02/27 04:41:00;;;;;;;10.23;3.90;;;6.00;60.60;;;;;;4992795;28;20069;-70
2022/02/27 04:43:30;;;;;;;8.60;3.97;;;5.90;61.00;;;;;;4976368;28;20038;-70
2022/02/27 04:45:57;;;;;;;9.43;3.53;;;5.90;61.20;;;;;;4993840;28;20048;-70
2022/02/27 04:48:25;;;;;;;8.10;3.78;;;5.90;61.10;;;;;;4992569;28;20621;-70
2022/02/27 04:50:52;;;;;;;10.88;4.07;;;5.80;61.50;;;;;;4992137;28;20038;-70
2022/02/27 04:53:19;;;;;;;7.78;3.17;;;5.60;62.10;;;;;;4993349;28;20117;-70
2022/02/27 04:55:46;;;;;;;12.20;4.13;;;5.50;62.30;;;;;;4992354;28;20049;-70
2022/02/27 04:58:13;;;;;;;14.98;4.05;;;5.40;62.60;;;;;;4976147;28;20120;-70
2022/02/27 05:00:40;;;;;;;11.10;4.15;;;5.40;62.90;;;;;;4993865;28;20046;-70
2022/02/27 05:03:07;;;;;;;11.20;3.72;;;5.40;62.80;;;;;;4996490;28;20042;-70
2022/02/27 05:05:37;;;;;;;10.98;3.67;;;5.20;63.20;;;;;;4994125;28;20042;-70
2022/02/27 05:08:04;;;;;;;10.80;3.42;;;5.50;62.80;;;;;;5008231;28;20536;-70
2022/02/27 05:10:31;;;;;;;8.50;3.58;;;5.60;62.00;;;;;;4992879;28;20050;-70
2022/02/27 05:12:59;;;;;;;10.25;3.92;;;5.60;62.10;;;;;;5006337;28;20048;-70
2022/02/27 05:15:26;;;;;;;8.35;3.40;;;5.60;62.30;;;;;;4991197;28;20128;-70
2022/02/27 05:17:53;;;;;;;13.23;4.18;;;5.60;62.00;;;;;;4991651;28;20143;-70
2022/02/27 05:20:20;;;;;;;12.23;4.63;;;5.50;62.00;;;;;;4993180;28;20157;-70
2022/02/27 05:22:48;;;;;;;10.15;4.10;;;5.60;61.50;;;;;;4993978;28;20574;-70
2022/02/27 05:25:19;;;;;;;13.00;4.70;;;5.70;61.60;;;;;;4994522;28;20085;-70
2022/02/27 05:27:48;;;;;;;13.65;4.75;;;5.70;61.40;;;;;;4993782;28;20632;-70
2022/02/27 05:30:16;;;;;;;11.48;3.75;;;5.70;61.40;;;;;;4993742;28;20041;-70
2022/02/27 05:32:45;;;;;;;9.00;3.45;;;5.60;61.70;;;;;;5006914;28;20848;-70
2022/02/27 05:35:12;;;;;;;11.18;5.30;;;5.80;61.60;;;;;;4992914;28;20126;-70
2022/02/27 05:37:40;;;;;;;10.90;3.67;;;5.80;61.60;;;;;;4992367;28;20049;-70
2022/02/27 05:40:08;;;;;;;11.88;4.03;;;5.90;61.50;;;;;;4993140;28;20042;-70
2022/02/27 05:42:35;;;;;;;11.45;4.55;;;5.90;61.10;;;;;;4993370;28;20042;-70
2022/02/27 05:45:05;;;;;;;9.15;3.75;;;6.00;60.80;;;;;;4992799;28;20742;-70
2022/02/27 05:47:32;;;;;;;12.63;3.50;;;6.00;60.70;;;;;;4989590;28;20504;-70
2022/02/27 05:49:59;;;;;;;11.77;4.60;;;5.80;61.60;;;;;;5006373;28;20049;-70
2022/02/27 05:52:26;;;;;;;16.02;5.43;;;5.70;62.00;;;;;;4991516;28;20500;-70
2022/02/27 05:54:53;;;;;;;12.82;5.70;;;5.70;62.00;;;;;;4991221;28;20042;-70
2022/02/27 05:57:20;;;;;;;12.65;5.75;;;5.60;62.40;;;;;;4990891;28;20539;-70
2022/02/27 05:59:47;;;;;;;14.90;6.22;;;5.70;62.20;;;;;;4990560;28;20093;-70
2022/02/27 06:02:15;;;;;;;14.48;5.88;;;5.70;62.00;;;;;;4991964;28;20493;-70
2022/02/27 06:04:42;;;;;;;16.00;5.95;;;5.70;61.80;;;;;;5007203;28;20058;-70
2022/02/27 06:07:09;;;;;;;15.63;5.47;;;5.70;61.90;;;;;;4990720;28;20148;-70
2022/02/27 06:09:35;;;;;;;12.82;4.35;;;5.80;61.80;;;;;;4993897;28;20042;-70
2022/02/27 06:12:03;;;;;;;14.38;4.25;;;5.70;62.20;;;;;;5008572;28;20484;-70
2022/02/27 06:14:30;;;;;;;11.98;4.22;;;5.80;61.80;;;;;;4991784;28;20879;-70
2022/02/27 06:16:57;;;;;;;14.98;5.20;;;5.80;61.80;;;;;;4996834;28;20528;-70
2022/02/27 06:19:24;;;;;;;15.93;4.88;;;5.90;61.40;;;;;;5008968;28;20049;-70
2022/02/27 06:21:51;;;;;;;10.45;3.55;;;5.90;61.70;;;;;;5000090;28;20136;-70
2022/02/27 06:24:18;;;;;;;8.10;3.13;;;6.00;61.00;;;;;;4992667;28;20057;-70
2022/02/27 06:26:45;;;;;;;11.45;4.35;;;6.00;61.00;;;;;;5007675;28;20740;-70
2022/02/27 06:29:13;;;;;;;12.00;4.40;;;6.10;60.70;;;;;;4996156;28;20112;-70
2022/02/27 06:31:40;;;;;;;8.48;3.53;;;5.90;61.10;;;;;;4978714;28;20061;-71
2022/02/27 06:34:07;;;;;;;7.88;3.45;;;6.00;61.30;;;;;;5012314;28;20122;-70
2022/02/27 06:36:34;;;;;;;9.32;4.05;;;6.00;60.60;;;;;;4998841;28;20038;-70
2022/02/27 06:39:03;;;;;;;7.75;2.95;;;6.10;60.60;;;;;;4996263;28;20821;-70
2022/02/27 06:41:30;;;;;;;11.10;3.33;;;6.20;60.50;;;;;;5008816;28;20042;-71
2022/02/27 06:43:57;;;;;;;6.07;2.72;;;6.40;60.20;;;;;;4994049;28;20149;-70
2022/02/27 06:46:24;;;;;;;10.10;2.88;;;6.40;59.80;;;;;;4997562;28;20045;-70
2022/02/27 06:48:51;;;;;;;9.75;3.42;;;6.30;60.10;;;;;;4992705;28;20148;-70
2022/02/27 06:51:18;;;;;;;11.98;4.03;;;6.30;60.20;;;;;;4995866;28;20802;-70
2022/02/27 06:53:45;;;;;;;8.75;3.22;;;6.10;60.40;;;;;;4996031;28;20046;-70
2022/02/27 06:56:13;;;;;;;10.65;4.20;;;6.20;60.20;;;;;;5008752;28;20156;-70
2022/02/27 06:58:40;;;;;;;12.20;3.00;;;6.10;60.40;;;;;;4993874;28;20440;-70
2022/02/27 07:01:10;;;;;;;9.77;3.30;;;6.10;60.20;;;;;;4997562;28;20131;-70
2022/02/27 07:03:37;;;;;;;6.63;2.78;;;6.20;60.10;;;;;;4997104;28;20053;-70
2022/02/27 07:06:04;;;;;;;10.60;3.92;;;6.10;60.20;;;;;;4994057;28;20575;-70
2022/02/27 07:08:31;;;;;;;9.23;3.60;;;6.30;59.90;;;;;;4995943;28;20046;-70
2022/02/27 07:11:02;;;;;;;9.68;3.58;;;6.30;59.50;;;;;;4996599;28;20117;-70
2022/02/27 07:13:30;;;;;;;14.13;4.10;;;6.40;59.30;;;;;;4992803;28;20125;-70
2022/02/27 07:15:58;;;;;;;10.23;4.05;;;6.40;59.00;;;;;;4994837;28;20084;-70
2022/02/27 07:18:25;;;;;;;11.13;3.28;;;6.40;59.10;;;;;;4994900;28;20046;-70
2022/02/27 07:20:52;;;;;;;6.70;3.20;;;6.30;59.10;;;;;;4996328;28;20730;-70
2022/02/27 07:23:19;;;;;;;7.55;2.78;;;6.30;59.00;;;;;;4987554;28;20570;-70
2022/02/27 07:25:46;;;;;;;8.80;2.88;;;6.30;59.00;;;;;;4995315;28;20049;-70
2022/02/27 07:28:14;;;;;;;7.63;2.30;;;6.40;58.80;;;;;;4992752;28;20065;-70
2022/02/27 07:30:41;;;;;;;6.85;2.50;;;6.50;58.30;;;;;;5006874;28;20049;-71
2022/02/27 07:33:08;;;;;;;8.68;2.88;;;6.50;57.80;;;;;;5009967;28;20479;-71
2022/02/27 07:35:35;;;;;;;8.55;2.72;;;6.60;58.00;;;;;;5009391;28;20429;-70
2022/02/27 07:38:02;;;;;;;7.90;2.53;;;6.70;57.20;;;;;;4997364;28;20161;-71
2022/02/27 07:40:31;;;;;;;7.28;2.42;;;6.60;57.40;;;;;;4990760;28;20065;-70
2022/02/27 07:42:58;;;;;;;7.28;2.50;;;6.60;57.50;;;;;;4990959;28;20050;-70
2022/02/27 07:45:25;;;;;;;8.10;2.42;;;6.60;57.30;;;;;;4994101;28;20048;-70
2022/02/27 07:47:52;;;;;;;6.32;2.40;;;6.70;57.20;;;;;;4994838;28;20053;-70
2022/02/27 07:50:19;;;;;;;6.72;2.58;;;6.70;57.10;;;;;;4998667;28;20050;-70
2022/02/27 07:52:46;;;;;;;7.03;2.67;;;6.90;56.60;;;;;;5011278;28;20046;-70
2022/02/27 07:55:13;;;;;;;5.45;2.22;;;6.90;56.50;;;;;;4996109;28;20049;-70
2022/02/27 07:57:40;;;;;;;6.55;2.50;;;6.90;55.70;;;;;;4994752;28;20069;-70
2022/02/27 08:00:08;;;;;;;7.20;2.42;;;7.10;56.10;;;;;;4992828;28;20057;-70
2022/02/27 08:02:38;;;;;;;6.05;1.88;;;7.00;55.40;;;;;;4995316;28;21706;-70
2022/02/27 08:05:06;;;;;;;7.45;2.78;;;7.10;55.80;;;;;;4993513;28;20300;-71
2022/02/27 08:07:33;;;;;;;7.80;2.35;;;7.10;55.50;;;;;;4993882;28;20045;-70
2022/02/27 08:10:00;;;;;;;6.47;1.90;;;7.30;55.00;;;;;;4993272;28;20173;-70
2022/02/27 08:12:31;;;;;;;6.82;2.03;;;7.30;54.60;;;;;;4997358;28;20050;-70
2022/02/27 08:14:58;;;;;;;6.03;1.90;;;7.20;54.60;;;;;;4992800;28;20046;-70
2022/02/27 08:17:25;;;;;;;10.02;1.98;;;7.30;54.60;;;;;;4994960;28;20042;-72
2022/02/27 08:19:52;;;;;;;6.07;2.00;;;7.20;54.30;;;;;;4995920;28;20070;-71
2022/02/27 08:22:19;;;;;;;4.70;2.00;;;7.20;54.40;;;;;;4993490;28;20054;-72
2022/02/27 08:24:46;;;;;;;8.05;2.08;;;7.40;54.30;;;;;;4989579;28;20386;-70
2022/02/27 08:27:13;;;;;;;7.68;2.53;;;7.40;54.40;;;;;;4995453;28;20141;-70
2022/02/27 08:29:42;;;;;;;6.72;2.40;;;7.40;54.40;;;;;;4992265;28;20501;-70
2022/02/27 08:32:10;;;;;;;6.07;2.38;;;7.40;53.90;;;;;;4991946;28;20405;-71
2022/02/27 08:34:37;;;;;;;8.75;2.28;;;7.50;53.70;;;;;;4994033;28;20046;-71
2022/02/27 08:37:04;;;;;;;7.50;2.70;;;7.60;53.50;;;;;;4993482;28;20128;-70
2022/02/27 08:39:31;;;;;;;8.00;2.75;;;7.60;53.50;;;;;;4994836;28;20054;-71
2022/02/27 08:41:58;;;;;;;7.03;2.53;;;7.70;53.60;;;;;;4993235;28;20053;-70
2022/02/27 08:44:25;;;;;;;10.65;2.15;;;7.70;54.00;;;;;;4991348;28;20101;-71
2022/02/27 08:46:52;;;;;;;12.10;3.75;;;7.80;53.60;;;;;;5008620;28;20124;-70
2022/02/27 08:49:19;;;;;;;8.15;2.67;;;7.90;53.70;;;;;;4996731;28;20104;-70
2022/02/27 08:51:48;;;;;;;8.90;1.92;;;8.00;53.40;;;;;;4992497;28;20122;-70
2022/02/27 08:54:15;;;;;;;5.55;2.80;;;8.10;53.10;;;;;;4993754;28;20046;-70
2022/02/27 08:56:43;;;;;;;11.93;4.30;;;8.10;53.20;;;;;;4994583;28;20041;-70
2022/02/27 08:59:10;;;;;;;10.57;3.15;;;8.20;53.00;;;;;;4994678;28;20124;-70
2022/02/27 09:01:38;;;;;;;5.53;2.50;;;8.20;52.30;;;;;;4991245;28;20062;-70
2022/02/27 09:04:05;;;;;;;5.95;1.80;;;8.30;52.00;;;;;;4995583;28;20457;-70
2022/02/27 09:06:32;;;;;;;9.13;3.08;;;8.40;51.30;;;;;;4993086;28;20087;-71
2022/02/27 09:08:59;;;;;;;6.78;1.30;;;8.50;51.00;;;;;;4995605;28;20050;-71
2022/02/27 09:11:27;;;;;;;7.70;1.30;;;8.40;49.50;;;;;;4993489;28;20524;-70
2022/02/27 09:13:54;;;;;;;5.10;1.48;;;8.40;49.60;;;;;;4992769;28;20052;-71
2022/02/27 09:16:22;;;;;;;5.93;1.58;;;8.40;50.10;;;;;;4997786;28;20050;-70
2022/02/27 09:18:49;;;;;;;2.33;1.02;;;8.50;49.60;;;;;;4995378;28;20089;-71
2022/02/27 09:21:17;;;;;;;5.70;1.02;;;8.60;49.10;;;;;;5009824;28;20057;-70
2022/02/27 09:23:44;;;;;;;4.18;1.10;;;8.60;49.30;;;;;;4993140;28;20048;-70
2022/02/27 09:26:12;;;;;;;6.70;2.58;;;8.70;49.10;;;;;;4992058;28;20611;-71
2022/02/27 09:28:51;;;;;;;7.85;1.15;;;8.80;49.30;;;;;;4993757;28;20085;-71
2022/02/27 09:31:19;;;;;;;3.85;1.20;;;8.80;49.00;;;;;;4995146;28;20846;-71
2022/02/27 09:33:46;;;;;;;7.32;1.60;;;8.70;48.40;;;;;;4991414;28;20045;-70
2022/02/27 09:36:13;;;;;;;5.03;1.33;;;8.90;48.80;;;;;;4995574;28;20037;-71
2022/02/27 09:38:42;;;;;;;3.95;1.13;;;9.00;48.60;;;;;;4992634;28;20082;-70
2022/02/27 09:41:09;;;;;;;9.07;1.92;;;9.00;48.10;;;;;;4994312;28;20124;-71
2022/02/27 09:43:37;;;;;;;4.47;1.55;;;8.90;48.20;;;;;;4992367;28;20038;-71
2022/02/27 09:46:06;;;;;;;9.80;2.40;;;9.00;48.60;;;;;;4990993;28;20056;-70
2022/02/27 09:48:34;;;;;;;3.38;1.40;;;9.10;48.50;;;;;;4990288;28;20046;-71
2022/02/27 09:51:02;;;;;;;2.72;0.98;;;9.10;48.10;;;;;;4993881;28;20132;-70
2022/02/27 09:53:30;;;;;;;6.22;1.70;;;9.10;48.00;;;;;;4992037;28;20042;-71
2022/02/27 09:55:58;;;;;;;6.63;1.67;;;9.10;48.20;;;;;;4992267;28;20105;-70
2022/02/27 09:58:27;;;;;;;9.05;2.50;;;9.20;48.40;;;;;;4992738;28;20154;-70
2022/02/27 10:00:54;;;;;;;6.18;1.83;;;9.20;48.00;;;;;;4993822;28;20056;-71
2022/02/27 10:03:26;;;;;;;4.50;1.33;;;9.30;47.60;;;;;;5013233;28;20053;-71
2022/02/27 10:06:03;;;;;;;7.35;1.33;;;9.30;47.50;;;;;;5008985;28;20086;-70
2022/02/27 10:08:40;;;;;;;5.88;1.27;;;9.30;47.80;;;;;;4979434;28;20042;-71
2022/02/27 10:11:12;;;;;;;4.95;1.42;;;9.30;47.10;;;;;;4996471;28;20065;-70
2022/02/27 10:13:42;;;;;;;6.93;1.45;;;9.40;48.00;;;;;;4996376;28;20623;-71
2022/02/27 10:16:27;;;;;;;2.75;1.00;;;9.60;47.30;;;;;;4995566;28;20054;-70
2022/02/27 10:19:00;;;;;;;4.55;1.00;;;9.80;46.70;;;;;;4994979;28;20045;-70
2022/02/27 10:21:30;;;;;;;;;;;9.90;46.50;;;;;;4997203;28;20037;-70
2022/02/27 10:24:18;;;;;;;7.03;1.30;;;10.00;46.00;;;;;;4999165;28;19946;-70
2022/02/27 10:26:49;;;;;;;3.45;1.05;;;10.10;46.40;;;;;;4995140;28;20050;-70
2022/02/27 10:29:21;;;;;;;2.55;0.95;;;10.30;46.10;;;;;;4995892;28;20931;-70
2022/02/27 10:31:54;;;;;;;4.03;0.90;;;10.50;45.90;;;;;;4978337;28;20145;-71
2022/02/27 10:34:31;;;;;;;3.53;1.13;;;10.80;45.30;;;;;;4992848;28;20477;-70
2022/02/27 10:37:07;;;;;;;3.22;0.80;;;11.00;44.70;;;;;;4996646;28;20069;-70
2022/02/27 10:39:42;;;;;;;3.92;0.98;;;11.30;44.60;;;;;;5011586;28;20046;-70
2022/02/27 10:42:12;;;;;;;3.92;1.20;;;11.40;44.10;;;;;;4996168;28;20058;-71
2022/02/27 10:44:42;;;;;;;4.43;1.15;;;11.40;43.50;;;;;;4997250;28;20473;-71
2022/02/27 10:47:16;;;;;;;4.30;1.10;;;11.30;43.30;;;;;;4995467;28;20057;-71
2022/02/27 10:49:45;;;;;;;2.85;1.15;;;11.10;43.30;;;;;;4997872;28;20042;-71
2022/02/27 10:52:15;;;;;;;3.75;0.98;;;10.90;43.30;;;;;;4980767;28;21038;-71
2022/02/27 10:54:46;;;;;;;7.43;1.13;;;10.70;43.90;;;;;;5012033;28;20052;-70
2022/02/27 10:57:34;;;;;;;2.65;1.13;;;10.90;44.40;;;;;;4995282;28;20048;-71
2022/02/27 11:00:05;;;;;;;5.68;1.83;;;11.10;43.60;;;;;;4999014;28;20046;-71
2022/02/27 11:02:34;;;;;;;3.35;1.02;;;11.20;43.10;;;;;;4995474;28;20050;-71
2022/02/27 11:05:02;;;;;;;8.13;1.35;;;11.20;43.00;;;;;;4995294;28;20100;-71
2022/02/27 11:07:30;;;;;;;5.85;1.40;;;11.40;42.70;;;;;;4979348;28;20042;-71
2022/02/27 11:09:57;;;;;;;5.45;1.05;;;11.50;42.50;;;;;;4997700;28;20098;-71
2022/02/27 11:12:25;;;;;;;4.15;1.30;;;11.70;42.80;;;;;;4993269;28;20038;-71
2022/02/27 11:14:54;;;;;;;5.85;1.25;;;11.70;42.50;;;;;;4995451;28;20075;-71
2022/02/27 11:17:23;;;;;;;6.60;1.42;;;11.80;42.00;;;;;;4992746;28;20049;-71
2022/02/27 11:19:51;;;;;;;3.72;1.00;;;11.80;41.60;;;;;;5007787;28;20052;-71
2022/02/27 11:22:19;;;;;;;5.60;1.10;;;11.90;41.80;;;;;;4978357;28;20588;-71
2022/02/27 11:24:49;;;;;;;2.67;0.80;;;11.70;41.70;;;;;;5010700;28;20042;-71
2022/02/27 11:27:17;;;;;;;7.00;0.90;;;11.70;42.00;;;;;;5013002;28;20128;-70
2022/02/27 11:29:48;;;;;;;6.55;1.15;;;11.70;42.90;;;;;;5010291;28;20090;-71
2022/02/27 11:32:15;;;;;;;4.38;1.42;;;11.60;42.30;;;;;;4993281;28;20045;-71
2022/02/27 11:34:43;;;;;;;4.95;1.50;;;11.70;42.30;;;;;;4992622;28;20042;-71
2022/02/27 11:37:11;;;;;;;3.05;1.02;;;11.50;42.00;;;;;;4990441;28;20037;-70
2022/02/27 11:42:49;;;;;;;3.97;1.58;;;11.70;43.00;;;;;;4991093;28;20089;-70
2022/02/27 11:45:38;;;;;;;5.88;1.38;;;11.90;43.20;;;;;;4992838;28;20505;-70
2022/02/27 11:48:07;;;;;;;3.97;1.17;;;12.20;43.00;;;;;;4992764;28;20938;-71
2022/02/27 11:50:43;;;;;;;5.60;1.42;;;12.20;42.10;;;;;;4993675;28;20164;-71
2022/02/27 11:53:20;;;;;;;5.40;1.00;;;12.40;41.30;;;;;;4995275;28;20120;-71
2022/02/27 11:55:48;;;;;;;1.85;0.80;;;12.40;41.00;;;;;;4992877;28;20569;-71
2022/02/27 11:58:27;;;;;;;4.00;1.80;;;12.40;41.10;;;;;;4990451;28;20053;-70
2022/02/27 12:01:02;;;;;;;3.30;1.35;;;12.60;41.20;;;;;;5010174;28;20058;-71
2022/02/27 12:03:34;;;;;;;2.65;0.80;;;12.40;41.00;;;;;;4992116;28;20061;-71
2022/02/27 12:06:05;;;;;;;4.18;0.90;;;12.50;40.70;;;;;;4992348;28;20042;-71
2022/02/27 12:08:51;;;;;;;4.93;1.33;;;12.60;40.90;;;;;;5005393;28;20042;-71
2022/02/27 12:11:29;;;;;;;3.50;0.98;;;12.70;41.30;;;;;;4973974;28;20056;-71
2022/02/27 12:14:06;;;;;;;3.45;0.82;;;12.90;40.80;;;;;;4989543;28;20038;-71
2022/02/27 12:16:45;;;;;;;4.60;1.40;;;12.90;41.20;;;;;;5011042;28;20056;-70
2022/02/27 12:19:31;;;;;;;6.20;1.20;;;13.10;40.90;;;;;;4988017;28;20100;-70
2022/02/27 12:22:00;;;;;;;4.10;1.02;;;13.10;40.90;;;;;;4989942;28;20050;-71
2022/02/27 12:24:34;;;;;;;2.33;1.20;;;13.20;40.30;;;;;;4991618;28;22332;-71
2022/02/27 12:27:04;;;;;;;4.22;1.33;;;13.30;40.60;;;;;;4993397;28;20038;-71
2022/02/27 12:29:41;;;;;;;5.18;1.42;;;13.50;40.50;;;;;;4991572;28;20497;-71
2022/02/27 12:32:20;;;;;;;3.42;0.98;;;13.40;40.10;;;;;;4992524;28;20069;-71
2022/02/27 12:34:55;;;;;;;4.40;1.02;;;13.60;39.60;;;;;;4994410;28;20042;-71
2022/02/27 12:37:23;;;;;;;2.78;0.75;;;13.60;39.30;;;;;;5006995;28;20125;-71
2022/02/27 12:39:53;;;;;;;3.97;1.15;;;13.60;39.70;;;;;;4992209;28;20092;-71
2022/02/27 12:42:23;;;;;;;5.57;1.35;;;13.60;39.80;;;;;;5004729;28;20130;-71
2022/02/27 12:44:55;;;;;;;3.70;1.00;;;13.70;39.60;;;;;;4991823;28;20074;-71
2022/02/27 12:47:26;;;;;;;6.82;1.25;;;13.70;39.10;;;;;;4990927;28;20510;-71
2022/02/27 12:50:21;;;;;;;2.72;1.33;;;13.70;39.50;;;;;;4974826;28;20409;-71
2022/02/27 12:52:49;;;;;;;4.93;1.55;;;13.70;39.40;;;;;;4992902;28;20057;-71
2022/02/27 12:55:19;;;;;;;3.72;1.33;;;13.70;39.20;;;;;;5010654;28;20034;-71
2022/02/27 12:57:52;;;;;;;3.35;1.13;;;13.50;39.20;;;;;;4988947;28;20458;-71
2022/02/27 13:00:24;;;;;;;3.95;1.40;;;13.50;39.40;;;;;;4992545;28;20128;-71
2022/02/27 13:02:54;;;;;;;4.10;1.23;;;13.40;39.30;;;;;;4991841;28;20417;-71